PATA/TAL METAR and TAF weather

Enter ICAO airport designator
Station Type Date Time Source
PATA METAR 2022/06/29 00:52 UTC NOAA

PATA 290052Z 27003KT 9SM SCT075 OVC085 22/08 A3005 RMK AO2 SLP177 T02220078


Station Type Date Time Source
PATA Decoded METAR 2022/06/29 00:52 UTC NOAA

TANANA CALHOUN MEMORIAL AIRPORT , AK, United States (PATA) 65-10N 152-06W 67M
Jun 28, 2022 - 08:52 PM EDT / 2022.06.29 0052 UTC
Wind: from the W (270 degrees) at 3 MPH (3 KT):0
Visibility: 9 mile(s):0
Sky conditions: overcast
Temperature: 72.0 F (22.2 C)
Dew Point: 46.0 F (7.8 C)
Relative Humidity: 39%
Pressure (altimeter): 30.05 in. Hg (1017 hPa)
ob: PATA 290052Z 27003KT 9SM SCT075 OVC085 22/08 A3005 RMK AO2 SLP177 T02220078
cycle: 1

Station Type Date Time Source
PATA TAF 2022/06/28 18:36 UTC NOAA

TAF PATA 281735Z 2818/2918 22003KT P6SM BKN110
FM282000 29008KT 6SM FU BKN070
FM290600 34004KT 6SM FU SCT100

Example: see airport list